Time;durP1;ratioP1;P1;durP2;ratioP2;P2;SDS_P1;SDS_P2;PMS_P1;PMS_P2;Temp;Humidity;BMP_temperature;BMP_pressure;BME280_temperature;BME280_humidity;BME280_pressure;Samples;Min_cycle;Max_cycle;Signal;HPM_P1;HPM_P2
2022/10/13 00:01:10;;;;;;;18.25;12.32;;;;;;;11.27;100.00;101699.56;5092978;28;20028;-60
2022/10/13 00:03:38;;;;;;;20.80;12.93;;;;;;;11.33;100.00;101704.72;5108706;28;20032;-60
2022/10/13 00:06:06;;;;;;;23.33;12.90;;;;;;;11.13;100.00;101684.06;5092934;28;20040;-61
2022/10/13 00:08:31;;;;;;;21.55;13.07;;;;;;;11.36;100.00;101702.00;5093189;28;20102;-59
2022/10/13 00:10:59;;;;;;;19.90;13.73;;;;;;;11.38;100.00;101700.22;5088753;28;20123;-59
2022/10/13 00:13:24;;;;;;;23.83;13.82;;;;;;;11.37;100.00;101709.03;5072683;28;20040;-62
2022/10/13 00:15:50;;;;;;;20.45;14.55;;;;;;;11.38;100.00;101717.81;5071359;28;20336;-61
2022/10/13 00:18:15;;;;;;;20.98;13.40;;;;;;;11.38;100.00;101700.22;5072592;28;20031;-61
2022/10/13 00:20:45;;;;;;;22.38;14.00;;;;;;;11.45;100.00;101707.09;5071026;28;20043;-60
2022/10/13 00:23:12;;;;;;;22.67;13.30;;;;;;;11.45;100.00;101695.66;5072480;28;20066;-60
2022/10/13 00:25:47;;;;;;;21.02;13.57;;;;;;;11.45;100.00;101688.63;5071650;28;20086;-60
2022/10/13 00:28:14;;;;;;;20.02;14.93;;;;;;;11.06;100.00;101627.13;5071896;28;20039;-60
2022/10/13 00:30:39;;;;;;;23.25;14.30;;;;;;;11.45;100.00;101693.91;5071147;28;20380;-60
2022/10/13 00:33:05;;;;;;;20.02;14.52;;;;;;;11.48;100.00;101693.84;5098971;28;20046;-60
2022/10/13 00:35:30;;;;;;;21.00;14.80;;;;;;;11.44;100.00;101692.16;5111433;28;20485;-61
2022/10/13 00:37:56;;;;;;;22.48;14.82;;;;;;;11.21;100.00;101649.63;5111743;28;20028;-60
2022/10/13 00:40:21;;;;;;;25.70;15.32;;;;;;;11.04;100.00;101617.53;5112951;28;20440;-59
2022/10/13 00:42:46;;;;;;;20.63;15.48;;;;;;;11.20;100.00;101645.28;5112447;28;20457;-60
2022/10/13 00:45:22;;;;;;;20.90;14.77;;;;;;;11.52;100.00;101708.69;5112625;28;20031;-60
2022/10/13 00:47:52;;;;;;;28.05;16.70;;;;;;;11.21;100.00;101641.72;5112663;28;20102;-59
2022/10/13 00:50:22;;;;;;;25.48;16.42;;;;;;;11.07;100.00;101615.69;5112683;28;20036;-61
2022/10/13 00:52:49;;;;;;;29.43;17.47;;;;;;;11.50;100.00;101705.22;5112766;28;20383;-61
2022/10/13 00:55:17;;;;;;;25.30;15.77;;;;;;;11.10;100.00;101627.94;5112535;28;20032;-61
2022/10/13 00:57:43;;;;;;;23.17;16.40;;;;;;;11.46;100.00;101687.75;5111547;28;20055;-60
2022/10/13 01:00:09;;;;;;;26.90;17.70;;;;;;;11.47;100.00;101691.25;5111233;28;20470;-59
2022/10/13 01:02:37;;;;;;;26.85;16.88;;;;;;;11.29;100.00;101664.38;5112864;28;20079;-62
2022/10/13 01:05:04;;;;;;;25.48;17.88;;;;;;;11.14;100.00;101633.13;5116837;28;20523;-62
2022/10/13 01:07:30;;;;;;;23.25;16.73;;;;;;;11.14;100.00;101635.75;5115805;28;20035;-60
2022/10/13 01:09:55;;;;;;;27.55;18.55;;;;;;;11.11;100.00;101627.03;5110148;28;20683;-60
2022/10/13 01:12:36;;;;;;;27.33;18.33;;;;;;;11.41;100.00;101687.00;5096457;28;20510;-61
2022/10/13 01:15:15;;;;;;;25.30;17.60;;;;;;;11.44;100.00;101681.63;5094831;28;20020;-61
2022/10/13 01:17:55;;;;;;;30.27;18.38;;;;;;;11.49;100.00;101684.16;5094677;28;20024;-60
2022/10/13 01:20:48;;;;;;;27.27;17.30;;;;;;;11.48;100.00;101672.75;5094030;28;20048;-60
2022/10/13 01:23:44;;;;;;;27.05;18.10;;;;;;;11.48;100.00;101667.47;5095953;28;20035;-61
2022/10/13 01:26:31;;;;;;;27.63;17.92;;;;;;;11.46;100.00;101681.59;5095934;28;20036;-61
2022/10/13 01:29:26;;;;;;;30.98;19.52;;;;;;;11.45;100.00;101695.66;5095279;28;20039;-60
2022/10/13 01:32:00;;;;;;;31.88;19.55;;;;;;;11.13;100.00;101627.88;5096197;28;20028;-60
2022/10/13 01:34:32;;;;;;;27.27;18.98;;;;;;;11.46;100.00;101690.38;5094704;28;20032;-61
2022/10/13 01:37:02;;;;;;;34.53;21.30;;;;;;;11.47;100.00;101694.72;5111718;28;20050;-61
2022/10/13 01:39:39;;;;;;;27.10;20.77;;;;;;;11.09;100.00;101621.78;5094613;28;20406;-60
2022/10/13 01:42:12;;;;;;;34.67;21.73;;;;;;;11.47;100.00;101681.53;5083801;28;20035;-60
2022/10/13 01:44:40;;;;;;;31.48;21.15;;;;;;;11.50;100.00;101667.47;5091274;28;20039;-60
2022/10/13 01:47:07;;;;;;;35.67;22.05;;;;;;;11.18;100.00;101613.69;5091218;28;20028;-60
2022/10/13 01:49:33;;;;;;;35.55;21.90;;;;;;;11.55;100.00;101684.03;5075272;28;20037;-62
2022/10/13 01:52:02;;;;;;;32.03;22.67;;;;;;;11.21;100.00;101604.84;5057551;28;20040;-62
2022/10/13 01:54:27;;;;;;;32.38;22.00;;;;;;;11.16;100.00;101590.91;5073939;28;20035;-60
2022/10/13 01:56:54;;;;;;;43.97;24.65;;;;;;;11.57;100.00;101629.47;5075478;28;20029;-63
2022/10/13 01:59:20;;;;;;;41.00;22.95;;;;;;;11.56;100.00;101641.78;5074195;28;20028;-62
2022/10/13 02:01:55;;;;;;;40.10;24.25;;;;;;;11.61;100.00;101660.16;5074197;28;20064;-61
2022/10/13 02:04:49;;;;;;;36.70;24.27;;;;;;;11.65;100.00;101630.16;5073727;28;20086;-62
2022/10/13 02:07:35;;;;;;;34.70;23.38;;;;;;;11.64;100.00;101620.53;5073813;28;20415;-62
2022/10/13 02:10:07;;;;;;;41.38;24.83;;;;;;;11.62;100.00;101602.09;5073776;28;20040;-62
2022/10/13 02:12:37;;;;;;;34.55;23.35;;;;;;;11.38;100.00;101564.94;5074511;28;20121;-61
2022/10/13 02:15:03;;;;;;;35.72;24.35;;;;;;;11.26;100.00;101551.16;5090561;28;20029;-61
2022/10/13 02:17:30;;;;;;;40.60;26.00;;;;;;;11.28;100.00;101559.88;5073838;28;20128;-62
2022/10/13 02:19:56;;;;;;;37.22;27.10;;;;;;;11.64;100.00;101625.81;5095496;28;20501;-61
2022/10/13 02:22:27;;;;;;;36.60;26.48;;;;;;;11.67;100.00;101621.34;5114131;28;20041;-59
2022/10/13 02:24:52;;;;;;;43.35;26.85;;;;;;;11.69;100.00;101614.28;5114102;28;20071;-59
2022/10/13 02:27:17;;;;;;;43.20;27.25;;;;;;;11.69;100.00;101616.91;5115419;28;20108;-61
2022/10/13 02:29:54;;;;;;;41.88;26.38;;;;;;;11.36;100.00;101554.41;5114703;28;20032;-60
2022/10/13 02:32:21;;;;;;;48.38;27.63;;;;;;;11.71;100.00;101601.03;5113822;28;20455;-61
2022/10/13 02:34:46;;;;;;;43.45;27.95;;;;;;;11.68;100.00;101593.16;5114088;28;20047;-59
2022/10/13 02:37:11;;;;;;;39.47;28.10;;;;;;;11.71;100.00;101591.34;5115116;28;20036;-60
2022/10/13 02:39:37;;;;;;;52.75;30.58;;;;;;;11.46;100.00;101537.47;5115255;28;20111;-60
2022/10/13 02:42:02;;;;;;;50.45;28.17;;;;;;;11.60;100.00;101563.47;5114998;28;20066;-60
2022/10/13 02:44:28;;;;;;;46.08;28.88;;;;;;;11.88;100.00;101595.34;5115054;28;20088;-60
2022/10/13 02:46:53;;;;;;;47.60;29.42;;;;;;;11.88;100.00;101587.44;5115051;28;20398;-60
2022/10/13 02:49:18;;;;;;;39.63;28.20;;;;;;;11.56;100.00;101535.44;5130784;27;20043;-61
2022/10/13 02:51:43;;;;;;;45.17;29.00;;;;;;;11.61;100.00;101531.81;5099026;28;20060;-60
2022/10/13 02:54:09;;;;;;;51.45;31.25;;;;;;;11.90;100.00;101583.84;5073734;28;20036;-60
2022/10/13 02:56:34;;;;;;;58.65;32.15;;;;;;;12.00;100.00;101608.19;5072928;28;20037;-61
2022/10/13 02:58:59;;;;;;;48.42;31.10;;;;;;;11.66;100.00;101542.25;5073927;28;20480;-59
2022/10/13 03:01:24;;;;;;;51.58;31.90;;;;;;;12.05;100.00;101606.31;5073938;28;20129;-61
2022/10/13 03:03:50;;;;;;;51.33;31.05;;;;;;;12.06;100.00;101601.00;5074144;28;20058;-62
2022/10/13 03:06:15;;;;;;;42.55;28.23;;;;;;;11.94;100.00;101563.53;5073601;28;20036;-60
2022/10/13 03:08:40;;;;;;;43.38;28.15;;;;;;;12.19;100.00;101593.63;5073859;28;20442;-60
2022/10/13 03:11:06;;;;;;;40.63;27.40;;;;;;;11.95;100.00;101530.94;5073886;28;20040;-61
2022/10/13 03:13:31;;;;;;;44.22;27.95;;;;;;;11.98;100.00;101539.66;5073632;28;20029;-61
2022/10/13 03:15:56;;;;;;;39.63;25.70;;;;;;;12.18;100.00;101573.41;5072426;28;20039;-60
2022/10/13 03:18:22;;;;;;;39.47;25.38;;;;;;;12.18;100.00;101576.03;5073789;28;20110;-60
2022/10/13 03:20:57;;;;;;;41.55;24.88;;;;;;;12.02;100.00;101549.22;5073689;28;20032;-60
2022/10/13 03:23:22;;;;;;;38.33;25.42;;;;;;;11.78;100.00;101500.63;5073275;28;20059;-60
2022/10/13 03:25:48;;;;;;;37.20;25.38;;;;;;;12.12;100.00;101566.53;5072687;28;20033;-61
2022/10/13 03:28:13;;;;;;;42.58;25.35;;;;;;;12.10;100.00;101560.44;5076310;28;20527;-61
2022/10/13 03:30:38;;;;;;;39.20;25.95;;;;;;;12.15;100.00;101562.94;5073400;28;20539;-61
2022/10/13 03:33:03;;;;;;;37.75;25.27;;;;;;;12.05;100.00;101543.88;5073344;28;20029;-60
2022/10/13 03:35:29;;;;;;;37.20;24.75;;;;;;;12.20;100.00;101548.69;5072186;28;20032;-61
2022/10/13 03:37:54;;;;;;;35.53;24.73;;;;;;;11.84;100.00;101492.56;5073431;28;20036;-61
2022/10/13 03:40:19;;;;;;;37.22;24.52;;;;;;;12.17;100.00;101553.22;5073296;28;20123;-62
2022/10/13 03:42:45;;;;;;;41.20;25.70;;;;;;;11.82;100.00;101496.13;5073283;28;20036;-62
2022/10/13 03:45:10;;;;;;;45.28;26.25;;;;;;;12.12;100.00;101536.63;5072885;28;20404;-61
2022/10/13 03:47:36;;;;;;;37.90;25.80;;;;;;;12.10;100.00;101520.84;5073254;28;20082;-61
2022/10/13 03:50:02;;;;;;;38.97;25.10;;;;;;;12.00;100.00;101516.72;5088837;28;20070;-61
2022/10/13 03:52:28;;;;;;;42.88;25.00;;;;;;;11.71;100.00;101488.50;5073220;28;20039;-60
2022/10/13 03:54:53;;;;;;;47.75;26.38;;;;;;;12.13;100.00;101549.78;5072907;28;20044;-61
2022/10/13 03:57:19;;;;;;;43.45;26.70;;;;;;;12.10;100.00;101551.66;5071621;28;20036;-60
2022/10/13 03:59:44;;;;;;;38.65;26.08;;;;;;;11.81;100.00;101504.94;5073139;28;20097;-60
2022/10/13 04:02:09;;;;;;;42.70;25.85;;;;;;;12.15;100.00;101553.25;5077809;28;20054;-61
2022/10/13 04:04:36;;;;;;;42.25;25.98;;;;;;;11.79;100.00;101491.78;5092852;28;20052;-60
2022/10/13 04:07:01;;;;;;;37.88;26.63;;;;;;;12.16;100.00;101560.28;5108784;28;20447;-60
2022/10/13 04:09:26;;;;;;;45.97;28.23;;;;;;;11.80;100.00;101492.66;5093067;28;20067;-60
2022/10/13 04:11:52;;;;;;;39.78;26.88;;;;;;;12.18;100.00;101563.72;5092411;28;20059;-61
2022/10/13 04:14:18;;;;;;;48.05;27.83;;;;;;;12.13;100.00;101543.66;5093141;28;20069;-62
2022/10/13 04:16:43;;;;;;;41.60;27.33;;;;;;;11.90;100.00;101504.72;5091849;28;20044;-60
2022/10/13 04:19:13;;;;;;;44.72;27.83;;;;;;;12.25;100.00;101553.88;5092700;28;20153;-61
2022/10/13 04:21:39;;;;;;;42.90;27.27;;;;;;;12.31;100.00;101559.84;5108607;28;20032;-61
2022/10/13 04:24:05;;;;;;;44.30;28.58;;;;;;;12.30;100.00;101562.50;5108504;28;20059;-59
2022/10/13 04:26:33;;;;;;;47.00;28.15;;;;;;;12.28;100.00;101554.66;5074807;28;20560;-61
2022/10/13 04:28:59;;;;;;;38.65;26.98;;;;;;;12.23;100.00;101539.84;5090693;28;20123;-61
2022/10/13 04:31:26;;;;;;;54.95;29.17;;;;;;;12.22;100.00;101546.91;5091603;28;20064;-61
2022/10/13 04:33:52;;;;;;;45.22;28.33;;;;;;;11.96;100.00;101486.06;5108241;28;20036;-61
2022/10/13 04:36:17;;;;;;;44.00;27.20;;;;;;;12.32;100.00;101556.28;5091255;28;20084;-62
2022/10/13 04:38:43;;;;;;;52.10;28.35;;;;;;;11.99;100.00;101483.34;5088311;28;20032;-62
2022/10/13 04:41:12;;;;;;;46.95;29.50;;;;;;;12.30;100.00;101533.47;5073719;28;20040;-63
2022/10/13 04:43:38;;;;;;;43.55;27.92;;;;;;;12.36;100.00;101543.88;5070951;28;20033;-63
2022/10/13 04:46:06;;;;;;;51.45;29.35;;;;;;;11.99;100.00;101478.06;5072312;28;20036;-62
2022/10/13 04:48:31;;;;;;;49.72;29.60;;;;;;;12.12;100.00;101497.03;5072294;28;20025;-63
2022/10/13 04:51:01;;;;;;;50.50;29.20;;;;;;;12.33;100.00;101531.63;5070910;28;20043;-62
2022/10/13 04:53:28;;;;;;;53.03;30.80;;;;;;;11.98;100.00;101486.88;5071970;28;20426;-62
2022/10/13 04:55:54;;;;;;;51.45;27.77;;;;;;;12.31;100.00;101549.28;5072385;28;20034;-63
2022/10/13 04:58:20;;;;;;;49.13;30.70;;;;;;;11.96;100.00;101486.06;5071002;28;20043;-61
2022/10/13 05:00:45;;;;;;;50.80;28.77;;;;;;;11.95;100.00;101486.97;5072339;28;20033;-62
2022/10/13 05:03:12;;;;;;;45.35;30.65;;;;;;;12.32;100.00;101551.00;5070766;28;20060;-62
2022/10/13 05:05:37;;;;;;;48.63;29.73;;;;;;;12.05;100.00;101492.88;5072090;28;20036;-61
2022/10/13 05:08:02;;;;;;;49.53;30.05;;;;;;;11.95;100.00;101481.69;5071854;28;20021;-62
2022/10/13 05:10:28;;;;;;;55.08;31.00;;;;;;;12.26;100.00;101539.75;5072016;28;20028;-62
2022/10/13 05:12:53;;;;;;;49.90;28.20;;;;;;;11.88;100.00;101476.63;5094121;28;20076;-61
2022/10/13 05:15:19;;;;;;;52.97;29.60;;;;;;;12.23;100.00;101540.69;5092002;28;20418;-62
2022/10/13 05:17:44;;;;;;;49.55;29.02;;;;;;;11.97;100.00;101492.19;5092256;28;20043;-61
2022/10/13 05:20:10;;;;;;;49.97;29.48;;;;;;;12.12;100.00;101518.16;5092043;28;20035;-60
2022/10/13 05:22:35;;;;;;;46.60;29.17;;;;;;;12.26;100.00;101543.25;5092032;28;20032;-61
2022/10/13 05:25:01;;;;;;;47.42;28.70;;;;;;;11.88;100.00;101487.19;5090812;28;20071;-61
2022/10/13 05:27:26;;;;;;;51.08;28.83;;;;;;;11.68;100.00;101450.75;5090950;28;20165;-63
2022/10/13 05:29:51;;;;;;;50.05;27.80;;;;;;;12.22;100.00;101541.63;5092053;28;20024;-62
2022/10/13 05:32:17;;;;;;;47.00;29.85;;;;;;;11.90;100.00;101486.25;5091939;28;20080;-61
2022/10/13 05:34:42;;;;;;;48.30;28.60;;;;;;;12.22;100.00;101524.91;5092031;28;20391;-64
2022/10/13 05:37:07;;;;;;;42.80;27.08;;;;;;;11.97;100.00;101479.00;5091839;28;20043;-62
2022/10/13 05:39:33;;;;;;;48.40;27.48;;;;;;;12.34;100.00;101538.66;5092173;28;20036;-61
2022/10/13 05:41:58;;;;;;;54.72;29.95;;;;;;;12.34;100.00;101541.28;5089810;28;20403;-62
2022/10/13 05:44:23;;;;;;;48.15;28.92;;;;;;;12.39;100.00;101531.44;5075218;28;20463;-61
2022/10/13 05:46:49;;;;;;;47.83;29.33;;;;;;;12.06;100.00;101460.28;5071774;28;20361;-61
2022/10/13 05:49:14;;;;;;;59.85;30.13;;;;;;;12.41;100.00;101536.66;5073419;28;20028;-63
2022/10/13 05:51:46;;;;;;;58.80;30.17;;;;;;;12.34;100.00;101511.38;5073775;28;20040;-62
2022/10/13 05:54:13;;;;;;;52.72;29.63;;;;;;;12.40;100.00;101516.47;5057408;28;20073;-61
2022/10/13 05:56:49;;;;;;;49.10;29.88;;;;;;;12.39;100.00;101504.19;5075505;28;20075;-62
2022/10/13 05:59:17;;;;;;;50.05;29.60;;;;;;;12.29;100.00;101485.09;5073140;28;20016;-62
2022/10/13 06:01:42;;;;;;;50.25;30.42;;;;;;;11.99;100.00;101435.84;5074762;28;20028;-62
2022/10/13 06:04:18;;;;;;;57.10;30.42;;;;;;;12.34;100.00;101485.84;5073610;28;20415;-62
2022/10/13 06:06:44;;;;;;;58.08;31.30;;;;;;;12.32;100.00;101484.13;5090581;28;20029;-62
2022/10/13 06:09:09;;;;;;;50.22;29.42;;;;;;;12.03;100.00;101426.06;5073892;28;20567;-63
2022/10/13 06:11:34;;;;;;;50.35;29.90;;;;;;;12.38;100.00;101495.38;5075239;28;20032;-62
2022/10/13 06:14:00;;;;;;;52.47;29.80;;;;;;;12.43;100.00;101493.47;5074877;28;20127;-61
2022/10/13 06:16:25;;;;;;;59.17;30.95;;;;;;;12.18;100.00;101449.38;5088589;28;20036;-64
2022/10/13 06:18:50;;;;;;;56.33;31.95;;;;;;;12.39;100.00;101494.50;5095075;28;20411;-65
2022/10/13 06:21:16;;;;;;;54.65;30.75;;;;;;;11.81;100.00;101397.69;5095281;28;20051;-65
2022/10/13 06:23:41;;;;;;;56.08;30.50;;;;;;;12.39;100.00;101499.78;5093014;28;20135;-65
2022/10/13 06:26:07;;;;;;;53.53;30.52;;;;;;;12.12;100.00;101460.09;5094997;28;20024;-61
2022/10/13 06:28:33;;;;;;;49.67;28.88;;;;;;;12.43;100.00;101501.38;5093822;28;20059;-61
2022/10/13 06:30:58;;;;;;;56.60;32.72;;;;;;;12.20;100.00;101458.13;5093915;28;20215;-59
2022/10/13 06:33:24;;;;;;;58.22;33.60;;;;;;;12.60;100.00;101518.53;5094523;28;20036;-60
2022/10/13 06:35:51;;;;;;;55.63;32.80;;;;;;;12.28;100.00;101457.00;5094664;28;20044;-64
2022/10/13 06:38:16;;;;;;;58.35;34.53;;;;;;;12.64;100.00;101515.72;5093678;28;20040;-65
2022/10/13 06:40:42;;;;;;;55.42;32.83;;;;;;;12.36;100.00;101469.94;5094757;28;20525;-60
2022/10/13 06:43:08;;;;;;;58.72;32.28;;;;;;;12.37;100.00;101469.88;5094034;28;20044;-66
2022/10/13 06:45:34;;;;;;;53.78;33.63;;;;;;;12.69;100.00;101503.28;5094678;28;20029;-61
2022/10/13 06:47:59;;;;;;;55.63;33.28;;;;;;;12.63;100.00;101484.97;5093390;28;20046;-63
2022/10/13 06:50:24;;;;;;;56.92;33.70;;;;;;;12.78;100.00;101510.88;5087746;28;20037;-60
2022/10/13 06:52:50;;;;;;;62.70;33.40;;;;;;;12.53;100.00;101457.09;5074420;28;20708;-61
2022/10/13 06:55:15;;;;;;;53.60;33.42;;;;;;;12.90;100.00;101514.97;5072879;28;20116;-60
2022/10/13 06:57:41;;;;;;;60.45;34.53;;;;;;;12.94;100.00;101511.28;5073971;28;20033;-62
2022/10/13 07:00:07;;;;;;;55.42;32.85;;;;;;;12.96;100.00;101514.75;5071553;28;20036;-60
2022/10/13 07:02:33;;;;;;;55.30;35.28;;;;;;;12.96;100.00;101509.44;5072345;28;20086;-62
2022/10/13 07:04:58;;;;;;;52.55;34.35;;;;;;;12.95;100.00;101491.88;5073411;28;20029;-61
2022/10/13 07:07:23;;;;;;;50.03;34.30;;;;;;;12.67;100.00;101454.88;5073823;28;20430;-61
2022/10/13 07:09:49;;;;;;;55.85;34.85;;;;;;;12.67;100.00;101451.38;5073816;28;20443;-61
2022/10/13 07:12:15;;;;;;;56.97;35.53;;;;;;;12.93;100.00;101510.41;5072054;28;20037;-61
2022/10/13 07:14:40;;;;;;;55.38;35.38;;;;;;;12.82;100.00;101486.13;5072861;28;20127;-65
2022/10/13 07:17:06;;;;;;;62.47;35.25;;;;;;;12.60;100.00;101445.44;5072722;28;20127;-63
2022/10/13 07:19:31;;;;;;;49.10;33.20;;;;;;;12.94;100.00;101500.72;5072444;28;20036;-61
2022/10/13 07:21:56;;;;;;;59.00;37.05;;;;;;;12.97;100.00;101496.22;5082594;28;20402;-64
2022/10/13 07:24:22;;;;;;;47.97;34.03;;;;;;;12.59;100.00;101422.59;5113297;28;20060;-63
2022/10/13 07:26:47;;;;;;;50.03;33.00;;;;;;;12.71;100.00;101430.13;5112231;28;20035;-61
2022/10/13 07:29:13;;;;;;;46.63;32.17;;;;;;;12.72;100.00;101441.56;5111131;28;20039;-66
2022/10/13 07:31:38;;;;;;;46.97;30.83;;;;;;;13.07;100.00;101502.06;5113189;28;20028;-62
2022/10/13 07:34:05;;;;;;;48.63;31.58;;;;;;;13.09;100.00;101504.69;5113023;28;20036;-61
2022/10/13 07:36:31;;;;;;;38.15;28.92;;;;;;;13.16;100.00;101495.66;5113018;28;20063;-63
2022/10/13 07:38:57;;;;;;;47.25;30.70;;;;;;;13.25;100.00;101498.00;5111576;28;20084;-59
2022/10/13 07:41:23;;;;;;;46.38;30.83;;;;;;;13.27;100.00;101509.38;5113038;28;20043;-61
2022/10/13 07:43:48;;;;;;;39.10;28.88;;;;;;;13.01;100.00;101443.25;5112744;28;20114;-63
2022/10/13 07:46:13;;;;;;;42.38;28.30;;;;;;;13.04;100.00;101443.16;5112647;28;20071;-61
2022/10/13 07:48:39;;;;;;;47.10;28.70;;;;;;;13.22;100.00;101463.75;5112822;28;20057;-59
2022/10/13 07:51:06;;;;;;;36.83;27.65;;;;;;;13.42;100.00;101493.88;5111385;28;20084;-62
2022/10/13 07:53:34;;;;;;;34.80;24.40;;;;;;;13.24;100.00;101460.13;5111879;28;20059;-61
2022/10/13 07:56:00;;;;;;;38.63;25.33;;;;;;;13.43;100.00;101506.16;5112828;28;20051;-61
2022/10/13 07:58:26;;;;;;;38.47;23.27;;;;;;;13.07;100.00;101440.41;5098756;28;20040;-62
2022/10/13 08:00:55;;;;;;;34.42;22.75;;;;;;;13.10;100.00;101443.00;5070631;28;20043;-61
2022/10/13 08:03:21;;;;;;;30.88;23.23;;;;;;;13.13;100.00;101449.03;5071770;28;20036;-62
2022/10/13 08:05:46;;;;;;;31.52;22.15;;;;;;;13.18;100.00;101448.88;5083442;28;20028;-61
2022/10/13 08:08:11;;;;;;;31.38;22.25;;;;;;;13.50;100.00;101504.19;5091128;28;20044;-59
2022/10/13 08:10:36;;;;;;;33.03;20.35;;;;;;;13.56;100.00;101511.91;5091745;28;20042;-60
2022/10/13 08:13:02;;;;;;;30.77;20.00;;;;;;;13.52;100.00;101505.00;5091463;28;20036;-63
2022/10/13 08:15:27;;;;;;;30.90;20.58;;;;;;;13.53;100.00;101498.81;5091769;28;20069;-61
2022/10/13 08:17:52;;;;;;;25.95;20.15;;;;;;;13.47;100.00;101484.00;5091958;28;20086;-62
2022/10/13 08:20:18;;;;;;;28.55;20.58;;;;;;;13.54;100.00;101501.38;5090805;28;20035;-64
2022/10/13 08:22:43;;;;;;;27.08;19.65;;;;;;;13.33;100.00;101461.59;5091802;28;20044;-61
2022/10/13 08:25:09;;;;;;;27.70;19.30;;;;;;;13.33;100.00;101454.53;5089144;28;20056;-61
2022/10/13 08:27:36;;;;;;;33.72;19.75;;;;;;;13.59;100.00;101498.59;5091805;28;20047;-62
2022/10/13 08:30:01;;;;;;;31.55;21.77;;;;;;;13.39;100.00;101453.44;5092136;28;20063;-63
2022/10/13 08:32:26;;;;;;;27.13;20.58;;;;;;;13.83;100.00;101497.75;5091639;28;20060;-63
2022/10/13 08:34:51;;;;;;;29.73;21.65;;;;;;;13.91;100.00;101489.53;5091741;28;20040;-62
2022/10/13 08:37:18;;;;;;;28.90;20.73;;;;;;;13.78;100.00;101445.88;5088805;28;20043;-62
2022/10/13 08:39:44;;;;;;;29.35;21.23;;;;;;;14.09;100.00;101489.75;5071870;28;20093;-62
2022/10/13 08:42:20;;;;;;;34.28;20.88;;;;;;;14.12;100.00;101466.72;5070148;28;20427;-61
2022/10/13 08:44:55;;;;;;;24.02;20.40;;;;;;;13.87;100.00;101425.25;5069563;28;20028;-64
2022/10/13 08:47:21;;;;;;;31.23;21.38;;;;;;;14.22;100.00;101497.19;5071390;28;20036;-63
2022/10/13 08:49:46;;;;;;;28.02;21.95;;;;;;;13.76;100.00;101415.97;5070852;28;20460;-62
2022/10/13 08:52:16;;;;;;;29.17;21.17;;;;;;;14.06;100.00;101484.56;5070866;28;20040;-64
2022/10/13 08:54:42;;;;;;;26.57;20.70;;;;;;;13.72;100.00;101409.94;5069928;28;20530;-64
2022/10/13 08:57:08;;;;;;;28.88;20.40;;;;;;;14.17;100.00;101484.16;5070526;28;20366;-63
2022/10/13 08:59:34;;;;;;;29.40;21.20;;;;;;;14.26;100.00;101491.75;5086240;28;20033;-63
2022/10/13 09:02:00;;;;;;;24.42;20.50;;;;;;;14.16;100.00;101466.53;5071156;28;20059;-61
2022/10/13 09:04:38;;;;;;;25.05;20.35;;;;;;;14.08;100.00;101435.06;5069423;28;20043;-61
2022/10/13 09:07:28;;;;;;;25.95;20.35;;;;;;;14.40;100.00;101488.63;5069621;28;20032;-59
2022/10/13 09:09:54;;;;;;;25.83;18.23;;;;;;;14.14;100.00;101444.56;5086643;28;20372;-62
2022/10/13 09:12:23;;;;;;;24.63;18.25;;;;;;;14.28;100.00;101431.66;5086678;28;20043;-59
2022/10/13 09:15:04;;;;;;;22.15;16.85;;;;;;;14.57;100.00;101495.00;5071014;28;20032;-62
2022/10/13 09:17:30;;;;;;;19.53;17.03;;;;;;;14.70;100.00;101478.63;5073376;28;20052;-60
2022/10/13 09:20:05;;;;;;;20.92;15.50;;;;;;;14.41;100.00;101432.06;5070812;28;20036;-61
2022/10/13 09:22:31;;;;;;;18.75;16.35;;;;;;;14.72;100.00;101490.88;5069723;28;20040;-59
2022/10/13 09:25:05;;;;;;;27.38;16.63;;;;;;;14.66;100.00;101493.78;5073578;28;20048;-61
2022/10/13 09:27:52;;;;;;;21.17;17.67;;;;;;;14.34;100.00;101434.09;5074702;28;20033;-61
2022/10/13 09:30:39;;;;;;;24.65;17.80;;;;;;;14.69;100.00;101501.59;5073421;28;20475;-61
2022/10/13 09:33:08;;;;;;;24.48;17.50;;;;;;;14.66;100.00;101504.38;5073356;28;20032;-63
2022/10/13 09:35:34;;;;;;;27.58;18.75;;;;;;;14.27;100.00;101432.59;5074539;28;20377;-61
2022/10/13 09:38:03;;;;;;;26.25;19.33;;;;;;;14.59;100.00;101487.84;5074588;28;20086;-59
2022/10/13 09:40:31;;;;;;;27.33;18.90;;;;;;;14.48;100.00;101479.44;5073154;28;20036;-61
2022/10/13 09:42:57;;;;;;;26.08;20.13;;;;;;;14.45;100.00;101479.56;5072457;28;20123;-61
2022/10/13 09:45:24;;;;;;;25.38;20.45;;;;;;;14.28;100.00;101449.31;5072901;28;20097;-61
2022/10/13 09:47:52;;;;;;;26.40;22.00;;;;;;;14.29;100.00;101428.09;5072278;28;20036;-59
2022/10/13 09:50:28;;;;;;;24.73;21.55;;;;;;;14.72;100.00;101463.53;5071380;28;20194;-60
2022/10/13 09:53:21;;;;;;;24.60;21.98;;;;;;;14.59;100.00;101421.59;5073075;28;20037;-60
2022/10/13 09:55:48;;;;;;;31.60;24.23;;;;;;;15.05;100.00;101464.84;5075809;28;20041;-60
2022/10/13 09:58:35;;;;;;;28.75;22.38;;;;;;;15.15;100.00;101482.06;5072935;28;20039;-65
2022/10/13 10:01:00;;;;;;;24.73;21.50;;;;;;;14.94;100.00;101435.25;5073750;28;20111;-60
2022/10/13 10:03:35;;;;;;;25.95;21.08;;;;;;;14.83;100.00;101438.31;5073555;28;20458;-63
2022/10/13 10:06:06;;;;;;;28.85;21.60;;;;;;;15.16;100.00;101481.16;5074175;28;20463;-61
2022/10/13 10:08:55;;;;;;;28.95;21.50;;;;;;;15.07;100.00;101487.69;5078875;28;20032;-60
2022/10/13 10:11:31;;;;;;;28.10;22.52;;;;;;;15.15;100.00;101490.03;5076611;28;20051;-62
2022/10/13 10:13:56;;;;;;;28.95;22.77;;;;;;;15.23;100.00;101490.59;5104042;28;20024;-61
2022/10/13 10:16:30;;;;;;;24.25;21.25;;;;;;;15.31;100.00;101483.19;5101880;28;20030;-60
2022/10/13 10:19:37;;;;;;;26.27;21.38;;;;;;;15.46;100.00;101487.84;5092137;28;20036;-63
2022/10/13 10:22:14;;;;;;;27.85;20.95;;;;;;;15.40;100.00;101466.00;5089559;28;20495;-60
2022/10/13 10:25:07;;;;;;;27.50;21.95;;;;;;;15.57;100.00;101480.31;5092246;28;20461;-60
2022/10/13 10:27:42;;;;;;;25.00;21.45;;;;;;;15.71;100.00;101472.63;5088881;28;20036;-63
2022/10/13 10:30:15;;;;;;;26.25;23.15;;;;;;;15.41;100.00;101414.69;5091888;28;20438;-60
2022/10/13 10:33:03;;;;;;;25.40;22.35;;;;;;;15.75;100.00;101490.16;5108576;27;20052;-60
2022/10/13 10:35:59;;;;;;;23.83;21.25;;;;;;;15.69;100.00;101474.50;5112213;28;20647;-63
2022/10/13 10:38:59;;;;;;;31.20;21.80;;;;;;;15.64;100.00;101465.84;5095929;28;20119;-61
2022/10/13 10:41:57;;;;;;;26.48;21.10;;;;;;;15.65;100.00;101472.03;5092923;28;20040;-60
2022/10/13 10:44:29;;;;;;;28.13;20.92;;;;;;;15.61;100.00;101466.00;5092395;28;20126;-60
2022/10/13 10:47:00;;;;;;;23.75;20.55;;;;;;;15.23;100.00;101389.81;5091972;28;20044;-62
2022/10/13 10:49:29;;;;;;;25.67;22.88;;;;;;;15.52;100.00;101471.72;5093196;28;20464;-59
2022/10/13 10:51:56;;;;;;;29.77;22.98;;;;;;;15.06;100.00;101402.94;5092260;28;20051;-59
2022/10/13 10:54:37;;;;;;;29.98;24.40;;;;;;;15.32;100.00;101453.09;5092874;28;20100;-63
2022/10/13 10:57:17;;;;;;;27.85;24.90;;;;;;;15.35;100.00;101449.44;5092494;28;20122;-62
2022/10/13 10:59:55;;;;;;;30.80;26.30;;;;;;;15.32;100.00;101457.53;5089777;28;20043;-61
2022/10/13 11:02:38;;;;;;;31.15;24.38;;;;;;;15.12;100.00;101464.50;5092453;28;20036;-61
2022/10/13 11:05:04;;;;;;;28.95;24.35;;;;;;;14.98;100.00;101453.59;5082449;28;20028;-62
2022/10/13 11:07:29;;;;;;;30.67;24.67;;;;;;;14.88;100.00;101452.28;5101317;28;20038;-61
2022/10/13 11:09:56;;;;;;;29.25;24.08;;;;;;;14.83;100.00;101446.25;5099386;28;20043;-62